Accueil
METAR-TAF:

METAR-TAF

Aéroports :

Felts Field Airport

Spokane, Washington, États-Unis

latitude: 47-41-08N, longitude: 117-19-13W, altitude: 595 m

Observation

Le bulletin a été fait il y a 28 minutes, à 16:53 UTC
Vent calme
Température -1°C
Humidité 86%
Pression 1027 hPa
Visibilité: 14.5 km
Ciel clair

METAR: KSFF 191653Z 00000KT 9SM CLR M01/M03 A3034 RMK AO2 SLP293 I1001 T10061028

Heure: 09:21 (17:21 UTC)

Prévision

Le bulletin a été fait il y a 3 heures et 17 minutes, à 14:04 UTC
Prévision valable du 19 à 14 UTC au 20 à 12 UTC
Vent kt de nord
Visibilité: 9.7 km
Ciel clair
brume
A partir de 19 à 1800 UTC
Vent 2 kt de direction variable
Visibilité: 10 km
Quelques nuages à une hauteur de 25000 ft
A partir de 20 à 0800 UTC
Vent kt de nord
Visibilité: 9.7 km
Quelques nuages à une hauteur de 25000 ft
brume

TAF: KSFF 191404Z 1914/2012 00000KT 6SM BR SKC FM191800 VRB02KT P6SM FEW250 FM200800 00000KT 6SM BR FEW250

Observations et prévisions météorologiques de plus de 4000 aéroports (messages METAR et TAF).

Les stations disponibles sont représentées par des disques jaunes et rouges sur la carte.

Passer la souris dessus pour voir le nom de la station.

Cliquer dessus pour voir les observations et prévisions météorologiques.

Pour changer de carte: cliquez sur les boutons verts avec une croix noire pour zoomer, sur le bouton vert avec un tiret pour effectuer un zoom arrière, ou sur les flèches vertes pour les cartes adjacentes.


METAR-TAF: